Time;durP1;ratioP1;P1;durP2;ratioP2;P2;SDS_P1;SDS_P2;PMS_P1;PMS_P2;Temp;Humidity;BMP_temperature;BMP_pressure;BME280_temperature;BME280_humidity;BME280_pressure;Samples;Min_cycle;Max_cycle;Signal;HPM_P1;HPM_P2
2024/02/08 00:03:23;;;;;;;13.23;6.78;;;2.90;99.90;;;;;;20578034;28;20047;-42
2024/02/08 00:13:23;;;;;;;17.15;8.48;;;2.90;99.90;;;;;;20590267;28;20069;-41
2024/02/08 00:23:24;;;;;;;13.82;6.82;;;2.90;99.90;;;;;;20580120;28;20034;-41
2024/02/08 00:33:25;;;;;;;14.63;7.20;;;2.90;99.90;;;;;;20593166;28;20046;-41
2024/02/08 00:43:26;;;;;;;16.77;6.93;;;3.00;99.90;;;;;;20596265;28;20038;-41
2024/02/08 00:53:26;;;;;;;14.07;6.57;;;3.00;99.90;;;;;;20597762;28;20073;-42
2024/02/08 01:03:27;;;;;;;17.17;6.95;;;3.00;99.90;;;;;;20609703;28;20030;-42
2024/02/08 01:13:29;;;;;;;18.83;6.88;;;3.00;99.90;;;;;;20611919;28;20159;-41
2024/02/08 01:23:29;;;;;;;15.05;7.15;;;3.10;99.90;;;;;;20605860;28;20042;-41
2024/02/08 01:33:30;;;;;;;17.67;7.50;;;3.10;99.90;;;;;;20618510;28;20054;-41
2024/02/08 01:43:33;;;;;;;13.88;7.22;;;3.20;99.90;;;;;;20606072;28;20486;-42
2024/02/08 01:53:34;;;;;;;11.27;5.90;;;3.20;99.90;;;;;;20610015;28;20053;-41
2024/02/08 02:03:35;;;;;;;10.80;6.07;;;3.20;99.90;;;;;;20604475;28;20038;-41
2024/02/08 02:13:38;;;;;;;15.43;6.50;;;3.30;99.90;;;;;;20610746;28;20071;-42
2024/02/08 02:23:42;;;;;;;12.65;6.32;;;3.30;99.90;;;;;;20615807;28;20038;-41
2024/02/08 02:33:47;;;;;;;14.27;6.18;;;3.40;99.90;;;;;;20597707;28;20039;-41
2024/02/08 02:43:47;;;;;;;13.48;6.22;;;3.40;99.90;;;;;;20612031;28;20078;-41
2024/02/08 02:53:48;;;;;;;13.88;7.13;;;3.40;99.90;;;;;;20609769;28;20042;-41
2024/02/08 03:03:48;;;;;;;16.50;7.05;;;3.40;99.90;;;;;;20608520;28;20065;-40
2024/02/08 03:13:49;;;;;;;16.20;7.87;;;3.50;99.90;;;;;;20593475;28;20566;-41
2024/02/08 03:23:50;;;;;;;12.38;7.32;;;3.50;99.90;;;;;;20582285;28;20462;-41
2024/02/08 03:33:53;;;;;;;14.82;7.32;;;3.50;99.90;;;;;;20598553;28;20502;-40
2024/02/08 03:43:54;;;;;;;13.85;6.93;;;3.50;99.90;;;;;;20605215;28;20042;-41
2024/02/08 03:53:55;;;;;;;15.30;7.27;;;3.50;99.90;;;;;;20607064;28;20069;-41
2024/02/08 04:04:11;;;;;;;11.88;7.20;;;3.50;99.90;;;;;;20609902;28;21072;-41
2024/02/08 04:55:30;;;;;;;18.20;8.40;;;3.40;99.90;;;;;;20616762;28;20047;-41
2024/02/08 05:05:31;;;;;;;18.65;8.43;;;3.40;99.90;;;;;;20609126;28;20137;-41
2024/02/08 05:15:31;;;;;;;17.45;8.15;;;3.30;99.90;;;;;;20610367;28;20050;-41
2024/02/08 05:25:35;;;;;;;17.25;9.18;;;3.30;99.90;;;;;;20607962;28;20036;-41
2024/02/08 05:35:36;;;;;;;24.83;9.52;;;3.30;99.90;;;;;;20607795;28;20529;-41
2024/02/08 05:45:36;;;;;;;20.98;9.55;;;3.40;99.90;;;;;;20615100;28;20491;-41
2024/02/08 05:55:40;;;;;;;26.40;9.05;;;3.40;99.90;;;;;;20608590;28;20042;-40
2024/02/08 06:05:49;;;;;;;19.10;7.82;;;3.40;99.90;;;;;;20613021;28;20057;-41
2024/02/08 06:15:53;;;;;;;18.63;8.25;;;3.50;99.90;;;;;;20597973;28;20038;-41
2024/02/08 06:36:22;;;;;;;26.98;8.73;;;3.50;99.90;;;;;;20604862;28;20050;-40
2024/02/08 06:46:47;;;;;;;18.13;6.88;;;3.50;99.90;;;;;;20603382;28;20045;-41
2024/02/08 07:38:07;;;;;;;19.70;5.93;;;3.60;99.90;;;;;;20574857;28;20038;-40
2024/02/08 07:48:12;;;;;;;14.48;5.13;;;3.60;99.90;;;;;;20596241;28;20076;-41
2024/02/08 07:58:18;;;;;;;15.75;4.63;;;3.70;90.90;;;;;;20592430;28;20100;-41
2024/02/08 08:08:25;;;;;;;16.55;3.63;;;3.70;83.70;;;;;;20621957;28;20050;-41
2024/02/08 08:18:29;;;;;;;13.47;3.37;;;3.80;86.10;;;;;;20617046;28;20026;-41
2024/02/08 08:28:39;;;;;;;14.95;3.55;;;3.90;70.10;;;;;;20612543;28;20129;-41
2024/02/08 08:38:44;;;;;;;13.73;3.38;;;4.00;71.20;;;;;;20621583;28;20081;-41
2024/02/08 08:48:50;;;;;;;12.82;3.70;;;4.10;52.90;;;;;;20623914;28;20049;-41
2024/02/08 08:58:52;;;;;;;11.93;3.53;;;4.20;23.00;;;;;;20621373;28;20026;-41
2024/02/08 09:08:56;;;;;;;10.55;3.15;;;4.30;23.40;;;;;;20635994;28;20182;-40
2024/02/08 09:29:00;;;;;;;9.07;3.33;;;4.30;21.10;;;;;;20622963;28;20096;-46
2024/02/08 09:39:00;;;;;;;15.32;3.80;;;4.40;11.70;;;;;;20621248;28;20030;-41
2024/02/08 09:49:11;;;;;;;9.27;2.80;;;4.50;10.00;;;;;;20607656;28;20462;-41
2024/02/08 09:59:18;;;;;;;15.15;2.75;;;4.40;10.10;;;;;;20620011;28;20049;-41
2024/02/08 10:19:48;;;;;;;12.00;3.20;;;4.50;7.90;;;;;;20631699;28;20054;-41
2024/02/08 10:29:52;;;;;;;13.98;3.58;;;4.50;8.20;;;;;;20615901;28;20133;-41
2024/02/08 10:39:59;;;;;;;14.00;4.05;;;4.80;2.00;;;;;;20616072;28;20046;-41
2024/02/08 10:50:02;;;;;;;12.55;4.50;;;4.70;1.90;;;;;;20606744;28;20072;-41
2024/02/08 11:00:49;;;;;;;18.77;4.60;;;4.80;5.50;;;;;;20617385;28;20042;-41
2024/02/08 11:10:31;;;;;;;12.63;4.85;;;4.80;14.20;;;;;;20623921;28;20035;-40
2024/02/08 11:20:44;;;;;;;16.73;5.57;;;4.60;18.90;;;;;;20629560;28;20129;-41
2024/02/08 11:30:46;;;;;;;16.70;6.25;;;4.40;31.80;;;;;;20627712;28;20132;-41
2024/02/08 11:40:47;;;;;;;13.43;5.00;;;4.40;59.70;;;;;;20612692;28;20038;-41
2024/02/08 11:50:49;;;;;;;16.35;6.90;;;4.30;75.60;;;;;;20621118;28;20039;-42
2024/02/08 12:00:52;;;;;;;21.23;6.85;;;4.40;93.20;;;;;;20606538;28;20494;-42
2024/02/08 12:10:53;;;;;;;17.33;6.43;;;4.30;98.80;;;;;;20604495;28;20054;-41
2024/02/08 12:20:55;;;;;;;19.42;8.60;;;4.30;99.90;;;;;;20599961;28;20209;-41
2024/02/08 12:31:00;;;;;;;16.70;6.95;;;4.30;99.90;;;;;;20598514;28;20110;-42
2024/02/08 12:41:06;;;;;;;14.43;7.32;;;4.20;99.90;;;;;;20590214;28;20038;-41
2024/02/08 12:51:13;;;;;;;22.63;8.27;;;4.20;99.90;;;;;;20589623;28;20053;-41
2024/02/08 13:01:18;;;;;;;18.40;7.93;;;4.10;99.90;;;;;;20575759;28;20042;-41
2024/02/08 13:11:22;;;;;;;24.45;7.65;;;4.10;99.90;;;;;;20625177;28;20078;-41
2024/02/08 13:21:24;;;;;;;15.48;5.90;;;4.10;99.90;;;;;;20620614;28;20473;-41
2024/02/08 13:31:27;;;;;;;15.50;5.50;;;4.00;99.90;;;;;;20617875;28;20045;-41
2024/02/08 13:41:27;;;;;;;12.63;4.25;;;3.90;99.90;;;;;;20616881;28;20046;-42
2024/02/08 13:51:29;;;;;;;8.80;4.57;;;3.90;99.90;;;;;;20609167;28;20042;-41
2024/02/08 14:01:32;;;;;;;9.43;4.30;;;3.80;99.90;;;;;;20606402;28;20037;-41
2024/02/08 14:11:36;;;;;;;10.60;3.95;;;3.80;99.90;;;;;;20611077;28;20038;-41
2024/02/08 14:21:40;;;;;;;11.10;3.80;;;3.80;99.90;;;;;;20603386;28;20196;-42
2024/02/08 14:31:41;;;;;;;9.52;3.33;;;3.70;99.60;;;;;;20602917;28;20082;-41
2024/02/08 14:41:42;;;;;;;9.15;3.13;;;3.60;99.90;;;;;;20605305;28;20154;-41
2024/02/08 14:51:47;;;;;;;8.93;3.08;;;3.70;99.90;;;;;;20625854;28;20050;-41
2024/02/08 15:01:52;;;;;;;5.20;2.58;;;3.60;99.90;;;;;;20606889;28;20434;-42
2024/02/08 15:22:03;;;;;;;6.32;3.28;;;3.50;99.90;;;;;;20602507;28;20042;-41
2024/02/08 15:32:17;;;;;;;6.60;3.28;;;3.50;99.90;;;;;;20615943;28;21335;-41
2024/02/08 15:42:20;;;;;;;8.00;3.50;;;3.50;99.90;;;;;;20600483;28;20426;-41
2024/02/08 15:52:22;;;;;;;6.97;2.75;;;3.60;99.90;;;;;;20586948;28;20057;-41
2024/02/08 16:02:25;;;;;;;6.45;3.72;;;3.50;99.90;;;;;;20609559;28;20038;-41
2024/02/08 16:22:47;;;;;;;6.50;3.47;;;3.50;99.90;;;;;;20611146;28;20042;-41
2024/02/08 16:32:55;;;;;;;7.28;3.30;;;3.40;99.90;;;;;;20600423;28;20042;-41
2024/02/08 16:43:10;;;;;;;6.22;3.45;;;3.50;99.90;;;;;;20630120;28;20181;-42
2024/02/08 16:53:14;;;;;;;6.75;3.28;;;3.50;99.90;;;;;;20623803;28;20104;-43
2024/02/08 17:13:40;;;;;;;4.95;2.88;;;3.50;99.90;;;;;;20634569;28;20115;-42
2024/02/08 17:23:59;;;;;;;7.43;3.78;;;3.50;99.90;;;;;;20615995;28;20034;-41
2024/02/08 17:34:08;;;;;;;6.78;4.25;;;3.50;99.90;;;;;;20621383;28;20057;-42
2024/02/08 17:44:09;;;;;;;6.35;4.20;;;3.40;99.90;;;;;;20625183;28;20042;-42
2024/02/08 17:54:14;;;;;;;7.10;4.32;;;3.50;99.90;;;;;;20594379;28;20073;-42
2024/02/08 18:04:23;;;;;;;7.90;4.70;;;3.40;99.90;;;;;;20576064;28;20038;-42
2024/02/08 18:14:24;;;;;;;7.00;4.50;;;3.40;99.90;;;;;;20572445;28;20076;-41
2024/02/08 18:24:26;;;;;;;6.53;4.20;;;3.60;99.90;;;;;;20570742;28;20416;-41
2024/02/08 18:34:27;;;;;;;7.78;4.82;;;3.50;99.90;;;;;;20581590;28;20117;-42
2024/02/08 18:44:32;;;;;;;8.43;5.50;;;3.50;99.90;;;;;;20590383;28;20030;-41
2024/02/08 18:54:33;;;;;;;8.43;5.53;;;3.50;99.90;;;;;;20600576;28;20042;-41
2024/02/08 19:04:35;;;;;;;8.17;5.50;;;3.60;99.90;;;;;;20619074;28;20042;-42
2024/02/08 19:14:36;;;;;;;9.57;5.72;;;3.50;99.90;;;;;;20618961;28;20893;-43
2024/02/08 19:24:38;;;;;;;10.07;6.15;;;3.50;99.90;;;;;;20601764;28;20065;-43
2024/02/08 19:34:39;;;;;;;10.52;6.22;;;3.60;99.90;;;;;;20595137;28;20054;-42
2024/02/08 19:44:42;;;;;;;9.45;5.95;;;3.60;99.90;;;;;;20622307;28;20034;-42
2024/02/08 19:54:42;;;;;;;11.18;6.82;;;3.70;99.90;;;;;;20602489;28;20047;-41
2024/02/08 20:04:43;;;;;;;10.80;6.53;;;3.80;99.90;;;;;;20617894;28;20058;-42
2024/02/08 20:14:45;;;;;;;10.45;6.13;;;3.80;99.90;;;;;;20618946;28;20826;-42
2024/02/08 20:24:47;;;;;;;12.05;7.50;;;3.90;99.90;;;;;;20630127;28;20038;-42
2024/02/08 20:34:48;;;;;;;10.60;6.60;;;3.90;99.90;;;;;;20631905;28;20117;-48
2024/02/08 20:44:49;;;;;;;13.63;7.18;;;4.00;99.90;;;;;;20632265;28;20461;-42
2024/02/08 20:54:53;;;;;;;14.10;7.90;;;4.00;99.90;;;;;;20632670;28;20182;-42
2024/02/08 21:04:54;;;;;;;13.85;7.43;;;4.10;99.90;;;;;;20631852;28;20043;-41
2024/02/08 21:14:56;;;;;;;16.05;9.23;;;4.10;99.90;;;;;;20623875;28;20038;-41
2024/02/08 21:24:57;;;;;;;14.25;8.38;;;4.40;99.90;;;;;;20613572;28;20050;-41
2024/02/08 21:34:57;;;;;;;15.68;8.90;;;4.30;99.90;;;;;;20620544;28;20038;-41
2024/02/08 21:44:58;;;;;;;18.92;9.95;;;4.40;99.90;;;;;;20586443;28;20039;-41
2024/02/08 21:54:58;;;;;;;16.73;9.57;;;4.50;99.90;;;;;;20609515;28;20121;-42
2024/02/08 22:04:59;;;;;;;19.48;10.95;;;4.50;99.90;;;;;;20615087;28;20070;-42
2024/02/08 22:15:01;;;;;;;21.48;12.63;;;4.60;99.90;;;;;;20613762;28;20050;-42
2024/02/08 22:25:01;;;;;;;23.23;13.23;;;4.90;99.90;;;;;;20632490;28;20100;-41
2024/02/08 22:35:02;;;;;;;23.75;13.15;;;5.10;99.90;;;;;;20630021;28;20038;-42
2024/02/08 22:45:05;;;;;;;23.83;13.63;;;5.20;99.90;;;;;;20622963;28;20034;-41
2024/02/08 22:55:10;;;;;;;28.95;14.82;;;5.50;99.90;;;;;;20612879;28;20091;-42
2024/02/08 23:05:12;;;;;;;33.83;15.65;;;5.60;99.90;;;;;;20599938;28;20049;-42
2024/02/08 23:15:16;;;;;;;37.03;16.13;;;6.20;99.90;;;;;;20594685;28;20042;-41
2024/02/08 23:25:17;;;;;;;39.20;17.38;;;6.70;99.90;;;;;;20596214;28;20412;-42
2024/02/08 23:35:24;;;;;;;39.97;15.60;;;7.20;1.00;;;;;;20735350;28;20064;-42
2024/02/08 23:45:26;;;;;;;38.58;15.18;;;7.70;1.00;;;;;;20760137;28;20041;-42
2024/02/08 23:55:28;;;;;;;33.47;13.80;;;8.10;1.00;;;;;;20761634;28;20052;-42
